Date,TemperatureHighF,TemperatureAvgF,TemperatureLowF,DewpointHighF,DewpointAvgF,DewpointLowF,HumidityHigh,HumidityAvg,HumidityLow,PressureMaxIn,PressureMinIn,WindSpeedMaxMPH,WindSpeedAvgMPH,GustSpeedMaxMPH,PrecipitationSumIn
2013-1-1,38,32,25,36,30,24,95,95,93,30.27,30.03,9,1,0,0.01
2013-1-2,35,27,22,27,22,19,93,83,59,30.31,30.20,6,0,0,0.00
2013-1-3,43,30,20,31,24,18,93,80,52,30.47,30.29,6,0,0,0.00
2013-1-4,47,34,21,29,25,19,92,71,42,30.50,30.34,7,0,0,0.00
2013-1-5,43,37,28,35,30,22,89,77,71,30.34,30.18,11,1,0,0.00
2013-1-6,37,30,24,32,25,20,93,81,52,30.38,30.24,10,0,0,0.00
2013-1-7,52,37,23,31,25,19,89,66,40,30.37,30.12,12,1,0,0.00
2013-1-8,59,43,28,45,35,23,94,75,54,30.18,30.02,11,1,0,0.19
2013-1-9,54,50,46,48,44,39,96,83,61,30.34,30.18,14,1,0,0.05
2013-1-10,56,50,46,54,47,40,95,90,68,30.19,29.79,12,1,0,0.14
2013-1-11,66,55,45,48,46,43,93,73,47,29.86,29.70,16,3,0,0.00
2013-1-12,58,44,30,51,38,28,93,81,50,29.96,29.77,14,2,0,0.33
2013-1-13,30,24,15,28,20,12,93,87,77,30.40,29.96,13,2,0,0.00
2013-1-14,35,22,12,19,14,9,91,75,45,30.52,30.36,7,0,0,0.00
2013-1-15,34,25,15,23,18,12,90,75,51,30.37,30.19,6,0,0,0.00
2013-1-16,43,28,14,23,19,12,92,70,41,30.24,30.12,8,0,0,0.00
2013-1-17,48,35,26,34,27,19,86,72,50,30.50,30.21,10,1,0,0.00
2013-1-18,57,40,23,34,28,20,92,66,35,30.52,30.19,11,2,0,0.00
2013-1-19,62,49,39,39,34,28,80,56,40,30.19,30.04,14,3,0,0.00
2013-1-20,61,43,30,38,30,20,88,62,39,30.27,30.10,11,1,0,0.00
2013-1-21,39,28,21,21,17,14,76,62,41,30.41,30.26,7,1,0,0.00
2013-1-22,47,31,20,28,21,15,85,67,46,30.35,30.22,9,0,0,0.00
2013-1-23,61,42,26,45,34,22,92,75,52,30.27,30.13,8,1,0,0.00
2013-1-24,43,38,33,35,23,18,78,56,44,30.33,30.12,13,1,0,0.00
2013-1-25,51,38,30,36,31,27,93,77,51,30.26,30.12,6,0,0,0.00
2013-1-26,61,45,31,30,26,22,86,53,24,30.27,30.11,11,1,0,0.00
2013-1-27,59,54,46,55,47,31,89,80,53,30.11,29.89,16,3,0,0.00
2013-1-28,72,66,59,62,60,56,89,81,69,29.93,29.76,15,5,0,0.00
2013-1-29,68,60,47,63,57,46,95,88,79,29.75,29.43,21,4,0,1.87
2013-1-30,47,34,24,46,30,20,95,86,76,30.09,29.47,16,4,0,0.01
2013-1-31,48,30,20,31,23,12,92,75,50,30.45,30.05,14,2,0,0.00